createdAt,value
2017-12-28T00:01:35.368Z,85.30
2017-12-28T00:04:08.046Z,85.10
2017-12-28T00:06:40.495Z,85.50
2017-12-28T00:09:13.891Z,85.30
2017-12-28T00:11:46.287Z,85.40
2017-12-28T00:14:19.579Z,85.30
2017-12-28T00:16:52.781Z,85.10
2017-12-28T00:19:25.509Z,85.20
2017-12-28T00:21:58.148Z,84.80
2017-12-28T00:24:31.575Z,84.70
2017-12-28T00:27:05.737Z,84.60
2017-12-28T00:29:38.428Z,84.40
2017-12-28T00:32:10.947Z,83.80
2017-12-28T00:34:43.371Z,83.80
2017-12-28T00:37:16.569Z,84.20
2017-12-28T00:39:49.284Z,84.50
2017-12-28T00:42:21.772Z,84.40
2017-12-28T00:44:55.070Z,84.60
2017-12-28T00:47:28.570Z,84.60
2017-12-28T00:50:02.002Z,84.80
2017-12-28T00:52:36.194Z,84.80
2017-12-28T00:55:09.544Z,84.60
2017-12-28T00:57:42.244Z,84.50
2017-12-28T01:00:15.519Z,84.30
2017-12-28T01:02:48.940Z,84.50
2017-12-28T01:05:22.420Z,84.60
2017-12-28T01:07:56.412Z,84.80
2017-12-28T01:10:29.224Z,84.90
2017-12-28T01:13:02.676Z,84.90
2017-12-28T01:15:36.086Z,84.90
2017-12-28T01:18:09.491Z,85.00
2017-12-28T01:20:42.803Z,85.00
2017-12-28T01:23:15.359Z,85.00
2017-12-28T01:25:47.882Z,85.10
2017-12-28T01:28:21.076Z,85.10
2017-12-28T01:30:53.682Z,85.20
2017-12-28T01:33:26.210Z,85.00
2017-12-28T01:35:59.622Z,85.00
2017-12-28T01:38:32.088Z,85.00
2017-12-28T01:41:04.676Z,85.70
2017-12-28T01:43:37.172Z,85.00
2017-12-28T01:46:10.293Z,84.90
2017-12-28T01:48:43.131Z,84.90
2017-12-28T01:51:15.660Z,84.90
2017-12-28T01:53:48.932Z,85.00
2017-12-28T01:56:22.278Z,84.90
2017-12-28T01:58:55.471Z,85.00
2017-12-28T02:01:28.948Z,85.00
2017-12-28T02:04:02.248Z,85.10
2017-12-28T02:06:34.944Z,85.00
2017-12-28T02:09:07.382Z,85.00
2017-12-28T02:11:39.968Z,85.00
2017-12-28T02:14:13.204Z,85.10
2017-12-28T02:16:45.668Z,85.10
2017-12-28T02:19:18.980Z,85.10
2017-12-28T02:21:52.353Z,85.10
2017-12-28T02:24:25.625Z,85.20
2017-12-28T02:26:58.166Z,85.00
2017-12-28T02:29:30.752Z,85.00
2017-12-28T02:32:04.049Z,85.20
2017-12-28T02:34:36.667Z,85.30
2017-12-28T02:37:09.285Z,85.20
2017-12-28T02:39:42.626Z,85.30
2017-12-28T02:42:15.252Z,85.20
2017-12-28T02:44:49.390Z,85.30
2017-12-28T02:47:22.866Z,85.10
2017-12-28T02:49:56.408Z,85.10
2017-12-28T02:52:29.215Z,85.10
2017-12-28T02:55:01.654Z,85.30
2017-12-28T02:57:34.177Z,85.20
2017-12-28T03:00:06.759Z,85.40
2017-12-28T03:02:40.030Z,85.20
2017-12-28T03:05:12.545Z,85.20
2017-12-28T03:07:46.524Z,85.20
2017-12-28T03:10:19.346Z,85.20
2017-12-28T03:12:52.723Z,85.10
2017-12-28T03:15:26.048Z,85.10
2017-12-28T03:17:58.671Z,85.10
2017-12-28T03:20:31.888Z,85.10
2017-12-28T03:23:04.380Z,84.90
2017-12-28T03:25:37.707Z,85.00
2017-12-28T03:28:10.220Z,84.90
2017-12-28T03:30:42.690Z,85.20
2017-12-28T03:33:15.918Z,85.10
2017-12-28T03:35:48.392Z,85.10
2017-12-28T03:38:22.527Z,84.80
2017-12-28T03:40:55.192Z,84.80
2017-12-28T03:43:27.614Z,84.70
2017-12-28T03:46:00.849Z,84.70
2017-12-28T03:48:34.198Z,84.70
2017-12-28T03:51:07.592Z,84.60
2017-12-28T03:53:40.966Z,84.60
2017-12-28T03:56:14.396Z,84.50
2017-12-28T03:58:47.699Z,84.60
2017-12-28T04:01:20.164Z,84.60
2017-12-28T04:03:52.560Z,84.30
2017-12-28T04:06:24.972Z,84.20
2017-12-28T04:08:58.119Z,84.10
2017-12-28T04:11:30.664Z,84.10
2017-12-28T04:14:03.936Z,84.10
2017-12-28T04:16:36.632Z,84.10
2017-12-28T04:19:09.816Z,84.10
2017-12-28T04:21:42.226Z,84.10
2017-12-28T04:24:14.711Z,83.80
2017-12-28T04:26:47.173Z,83.70
2017-12-28T04:29:19.662Z,83.70
2017-12-28T04:31:52.179Z,83.70
2017-12-28T04:34:24.668Z,83.90
2017-12-28T04:36:57.145Z,83.90
2017-12-28T04:39:30.599Z,83.80
2017-12-28T04:42:03.953Z,83.80
2017-12-28T04:44:37.255Z,83.80
2017-12-28T04:47:09.977Z,83.70
2017-12-28T04:49:43.325Z,83.50
2017-12-28T04:52:15.770Z,83.70
2017-12-28T04:54:48.224Z,83.90
2017-12-28T04:57:20.756Z,83.60
2017-12-28T04:59:53.290Z,84.00
2017-12-28T05:02:25.693Z,83.90
2017-12-28T05:04:59.138Z,84.00
2017-12-28T05:07:31.724Z,83.80
2017-12-28T05:10:05.922Z,83.90
2017-12-28T05:12:38.785Z,83.90
2017-12-28T05:15:12.204Z,83.90
2017-12-28T05:17:44.821Z,84.20
2017-12-28T05:20:18.217Z,84.20
2017-12-28T05:22:52.320Z,84.30
2017-12-28T05:25:25.604Z,84.40
2017-12-28T05:27:59.115Z,84.50
2017-12-28T05:30:31.681Z,84.50
2017-12-28T05:33:05.132Z,84.60
2017-12-28T05:35:39.266Z,84.60
2017-12-28T05:38:12.708Z,84.50
2017-12-28T05:40:46.096Z,84.30
2017-12-28T05:43:18.894Z,84.50
2017-12-28T05:45:52.185Z,84.70
2017-12-28T05:48:24.752Z,84.40
2017-12-28T05:50:58.171Z,84.40
2017-12-28T05:53:31.499Z,84.50
2017-12-28T05:56:04.235Z,84.50
2017-12-28T05:58:37.711Z,84.70
2017-12-28T06:01:10.384Z,84.90
2017-12-28T06:03:43.645Z,84.80
2017-12-28T06:06:17.054Z,84.80
2017-12-28T06:08:51.028Z,84.60
2017-12-28T06:11:24.455Z,84.50
2017-12-28T06:13:57.825Z,84.60
2017-12-28T06:16:30.552Z,84.50
2017-12-28T06:19:03.121Z,84.60
2017-12-28T06:21:36.511Z,84.70
2017-12-28T06:24:10.052Z,84.50
2017-12-28T06:26:43.397Z,84.60
2017-12-28T06:29:17.484Z,84.80
2017-12-28T06:31:57.256Z,84.70
2017-12-28T06:34:29.888Z,84.60
2017-12-28T06:37:03.209Z,84.50
2017-12-28T06:39:36.633Z,85.20
2017-12-28T06:42:09.115Z,84.50
2017-12-28T06:44:42.340Z,85.50
2017-12-28T06:47:15.096Z,84.60
2017-12-28T06:49:47.684Z,84.60
2017-12-28T06:52:21.125Z,84.70
2017-12-28T06:54:54.316Z,84.60
2017-12-28T06:57:27.715Z,84.50
2017-12-28T07:00:01.152Z,84.50
2017-12-28T07:02:33.659Z,84.80
2017-12-28T07:05:06.122Z,84.80
2017-12-28T07:07:39.400Z,84.40
2017-12-28T07:10:11.996Z,84.40
2017-12-28T07:12:44.557Z,84.40
2017-12-28T07:15:17.999Z,84.10
2017-12-28T07:17:51.384Z,84.30
2017-12-28T07:20:32.479Z,84.50
2017-12-28T07:23:05.320Z,84.30
2017-12-28T07:25:38.728Z,84.20
2017-12-28T07:28:12.090Z,84.60
2017-12-28T07:30:45.741Z,84.30
2017-12-28T07:33:18.722Z,84.40
2017-12-28T07:35:52.089Z,84.30
2017-12-28T07:38:24.538Z,84.50
2017-12-28T07:40:57.081Z,84.50
2017-12-28T07:43:30.478Z,84.30
2017-12-28T07:46:04.658Z,84.10
2017-12-28T07:48:38.140Z,84.10
2017-12-28T07:51:19.880Z,84.00
2017-12-28T07:53:53.248Z,84.10
2017-12-28T07:56:26.592Z,84.40
2017-12-28T07:59:01.687Z,84.80
2017-12-28T08:01:34.508Z,84.50
2017-12-28T08:04:06.968Z,84.60
2017-12-28T08:06:40.389Z,84.10
2017-12-28T08:09:12.835Z,84.10
2017-12-28T08:11:46.281Z,84.20
2017-12-28T08:14:19.666Z,84.10
2017-12-28T08:16:53.053Z,83.80
2017-12-28T08:19:26.401Z,83.60
2017-12-28T08:21:59.712Z,83.80
2017-12-28T08:24:32.234Z,83.80
2017-12-28T08:27:05.489Z,83.90
2017-12-28T08:29:38.351Z,84.20
2017-12-28T08:32:10.793Z,84.20
2017-12-28T08:34:44.196Z,83.90
2017-12-28T08:37:18.549Z,84.00
2017-12-28T08:39:51.980Z,84.40
2017-12-28T08:42:25.258Z,84.30
2017-12-28T08:44:58.054Z,84.00
2017-12-28T08:47:30.552Z,84.60
2017-12-28T08:50:03.111Z,83.70
2017-12-28T08:52:36.579Z,83.50
2017-12-28T08:55:09.985Z,83.60
2017-12-28T08:57:43.182Z,83.40
2017-12-28T09:00:16.602Z,83.40
2017-12-28T09:02:49.357Z,83.50
2017-12-28T09:05:22.766Z,83.40
2017-12-28T09:07:55.232Z,83.00
2017-12-28T09:10:27.677Z,83.00
2017-12-28T09:13:00.123Z,83.10
2017-12-28T09:15:32.623Z,83.10
2017-12-28T09:18:05.051Z,83.10
2017-12-28T09:20:38.344Z,83.40
2017-12-28T09:23:10.813Z,83.40
2017-12-28T09:25:44.068Z,83.50
2017-12-28T09:28:16.843Z,83.50
2017-12-28T09:30:49.280Z,83.60
2017-12-28T09:33:21.745Z,83.70
2017-12-28T09:35:54.243Z,83.50
2017-12-28T09:38:27.592Z,83.00
2017-12-28T09:41:00.082Z,83.20
2017-12-28T09:43:33.375Z,83.50
2017-12-28T09:46:05.869Z,83.10
2017-12-28T09:48:39.893Z,83.40
2017-12-28T09:51:12.772Z,83.50
2017-12-28T09:53:45.947Z,83.70
2017-12-28T09:56:18.629Z,83.50
2017-12-28T09:58:51.044Z,83.80
2017-12-28T10:01:23.474Z,84.10
2017-12-28T10:03:56.922Z,84.00
2017-12-28T10:06:29.356Z,83.90
2017-12-28T10:09:02.753Z,83.80
2017-12-28T10:11:36.036Z,84.30
2017-12-28T10:14:09.434Z,83.70
2017-12-28T10:16:42.892Z,83.80
2017-12-28T10:19:15.779Z,83.70
2017-12-28T10:21:49.025Z,83.70
2017-12-28T10:24:21.672Z,84.00
2017-12-28T10:26:54.930Z,83.90
2017-12-28T10:29:28.245Z,83.80
2017-12-28T10:32:02.382Z,84.00
2017-12-28T10:34:35.138Z,84.00
2017-12-28T10:37:09.288Z,83.60
2017-12-28T10:39:42.020Z,83.50
2017-12-28T10:42:15.171Z,83.30
2017-12-28T10:44:47.759Z,83.60
2017-12-28T10:47:20.257Z,83.60
2017-12-28T10:49:52.774Z,83.20
2017-12-28T10:52:26.243Z,83.00
2017-12-28T10:54:59.553Z,83.40
2017-12-28T10:57:32.910Z,83.50
2017-12-28T11:00:06.293Z,83.20
2017-12-28T11:02:38.819Z,83.20
2017-12-28T11:05:11.321Z,83.70
2017-12-28T11:07:43.802Z,83.90
2017-12-28T11:10:16.275Z,83.50
2017-12-28T11:12:50.460Z,83.40
2017-12-28T11:15:23.956Z,83.20
2017-12-28T11:17:56.705Z,83.10
2017-12-28T11:20:30.011Z,83.20
2017-12-28T11:23:02.454Z,83.20
2017-12-28T11:25:35.679Z,83.40
2017-12-28T11:28:08.212Z,83.50
2017-12-28T11:30:41.647Z,83.90
2017-12-28T11:33:15.029Z,83.60
2017-12-28T11:35:48.448Z,83.10
2017-12-28T11:38:21.716Z,83.20
2017-12-28T11:40:55.004Z,83.90
2017-12-28T11:43:28.418Z,84.30
2017-12-28T11:46:01.717Z,83.60
2017-12-28T11:48:35.020Z,83.60
2017-12-28T11:51:17.593Z,83.50
2017-12-28T11:53:50.324Z,83.40
2017-12-28T11:56:29.635Z,83.80
2017-12-28T11:59:02.901Z,84.40
2017-12-28T12:01:41.500Z,84.10
2017-12-28T12:04:20.614Z,84.10
2017-12-28T12:06:59.156Z,83.70
2017-12-28T12:09:38.620Z,83.70
2017-12-28T12:12:11.802Z,84.10
2017-12-28T12:14:44.565Z,84.10
2017-12-28T12:17:17.099Z,84.00
2017-12-28T12:19:51.251Z,84.20
2017-12-28T12:22:24.681Z,84.30
2017-12-28T12:24:58.048Z,84.10
2017-12-28T12:27:30.908Z,84.00
2017-12-28T12:30:03.345Z,83.80
2017-12-28T12:32:36.712Z,83.30
2017-12-28T12:35:10.095Z,84.00
2017-12-28T12:37:43.375Z,83.80
2017-12-28T12:40:15.792Z,83.60
2017-12-28T12:42:49.187Z,83.40
2017-12-28T12:45:21.851Z,83.40
2017-12-28T12:47:55.280Z,84.60
2017-12-28T12:50:27.832Z,83.30
2017-12-28T12:53:00.297Z,83.80
2017-12-28T12:55:33.631Z,83.60
2017-12-28T12:58:06.041Z,83.50
2017-12-28T13:00:39.511Z,82.40
2017-12-28T13:03:11.940Z,82.50
2017-12-28T13:05:45.252Z,82.70
2017-12-28T13:08:17.839Z,82.10
2017-12-28T13:10:51.253Z,82.30
2017-12-28T13:13:24.546Z,82.40
2017-12-28T13:15:57.124Z,83.00
2017-12-28T13:18:30.464Z,82.60
2017-12-28T13:21:03.791Z,83.30
2017-12-28T13:23:36.498Z,82.50
2017-12-28T13:26:09.676Z,83.00
2017-12-28T13:28:42.217Z,82.90
2017-12-28T13:31:14.624Z,82.40
2017-12-28T13:33:47.911Z,83.00
2017-12-28T13:36:20.531Z,82.90
2017-12-28T13:38:53.954Z,82.90
2017-12-28T13:41:27.283Z,82.90
2017-12-28T13:43:59.800Z,83.20
2017-12-28T13:46:32.234Z,83.20
2017-12-28T13:49:04.648Z,83.50
2017-12-28T13:51:37.886Z,83.40
2017-12-28T13:54:10.588Z,83.30
2017-12-28T13:56:43.861Z,83.00
2017-12-28T13:59:16.613Z,83.20
2017-12-28T14:01:49.958Z,83.10
2017-12-28T14:04:22.388Z,83.00
2017-12-28T14:06:54.794Z,83.00
2017-12-28T14:09:27.278Z,82.90
2017-12-28T14:12:00.659Z,83.20
2017-12-28T14:14:33.130Z,83.40
2017-12-28T14:17:06.509Z,83.40
2017-12-28T14:19:38.971Z,83.40
2017-12-28T14:22:11.454Z,83.40
2017-12-28T14:24:45.461Z,83.60
2017-12-28T14:27:18.214Z,83.60
2017-12-28T14:29:50.782Z,83.20
2017-12-28T14:32:23.316Z,83.40
2017-12-28T14:34:55.778Z,83.30
2017-12-28T14:37:28.198Z,83.40
2017-12-28T14:40:00.647Z,83.60
2017-12-28T14:42:33.123Z,84.10
2017-12-28T14:45:05.717Z,83.70
2017-12-28T14:47:38.151Z,83.60
2017-12-28T14:50:11.476Z,83.70
2017-12-28T14:52:49.985Z,83.90
2017-12-28T14:55:22.653Z,83.90
2017-12-28T14:57:56.920Z,83.50
2017-12-28T15:00:29.619Z,83.30
2017-12-28T15:03:03.001Z,83.30
2017-12-28T15:05:36.433Z,83.60
2017-12-28T15:08:08.930Z,83.50
2017-12-28T15:10:43.160Z,83.80
2017-12-28T15:13:15.844Z,83.70
2017-12-28T15:15:48.329Z,83.80
2017-12-28T15:18:21.707Z,83.80
2017-12-28T15:20:54.990Z,84.10
2017-12-28T15:23:28.390Z,84.10
2017-12-28T15:26:01.766Z,84.30
2017-12-28T15:28:35.254Z,84.00
2017-12-28T15:31:09.318Z,83.90
2017-12-28T15:33:42.736Z,84.20
2017-12-28T15:36:15.331Z,84.20
2017-12-28T15:38:47.837Z,84.40
2017-12-28T15:41:20.238Z,84.30
2017-12-28T15:43:53.592Z,84.30
2017-12-28T15:46:27.023Z,84.20
2017-12-28T15:49:01.068Z,84.50
2017-12-28T15:51:33.905Z,84.60
2017-12-28T15:54:07.206Z,84.10
2017-12-28T15:56:40.751Z,84.50
2017-12-28T15:59:13.502Z,84.40
2017-12-28T16:01:45.956Z,84.80
2017-12-28T16:04:18.528Z,84.50
2017-12-28T16:06:51.844Z,84.40
2017-12-28T16:09:24.240Z,84.30
2017-12-28T16:11:56.745Z,84.00
2017-12-28T16:14:30.132Z,83.70
2017-12-28T16:17:03.452Z,83.90
2017-12-28T16:19:36.883Z,83.90
2017-12-28T16:22:10.903Z,84.20
2017-12-28T16:24:43.553Z,84.10
2017-12-28T16:27:16.756Z,83.40
2017-12-28T16:29:50.263Z,83.80
2017-12-28T16:32:22.792Z,83.50
2017-12-28T16:34:55.266Z,83.80
2017-12-28T16:37:27.680Z,84.10
2017-12-28T16:40:00.945Z,83.20
2017-12-28T16:42:34.502Z,83.40
2017-12-28T16:45:07.073Z,83.30
2017-12-28T16:47:40.464Z,83.30
2017-12-28T16:50:12.927Z,82.90
2017-12-28T16:52:45.338Z,83.00
2017-12-28T16:55:17.798Z,83.00
2017-12-28T16:57:51.898Z,83.10
2017-12-28T17:00:24.750Z,82.60
2017-12-28T17:02:58.117Z,83.10
2017-12-28T17:05:31.536Z,83.30
2017-12-28T17:08:04.910Z,83.00
2017-12-28T17:10:37.375Z,83.10
2017-12-28T17:13:09.903Z,83.00
2017-12-28T17:15:42.366Z,82.90
2017-12-28T17:18:16.456Z,82.80
2017-12-28T17:20:49.810Z,82.80
2017-12-28T17:23:23.312Z,83.10
2017-12-28T17:25:55.915Z,83.10
2017-12-28T17:28:28.429Z,82.80
2017-12-28T17:31:00.779Z,82.70
2017-12-28T17:33:33.163Z,83.10
2017-12-28T17:36:05.704Z,82.90
2017-12-28T17:38:38.141Z,82.80
2017-12-28T17:41:11.477Z,82.50
2017-12-28T17:43:44.035Z,82.60
2017-12-28T17:46:17.399Z,82.30
2017-12-28T17:48:50.756Z,81.40
2017-12-28T17:51:23.312Z,81.50
2017-12-28T17:53:56.713Z,81.70
2017-12-28T17:56:30.006Z,81.80
2017-12-28T17:59:03.508Z,82.10
2017-12-28T18:01:36.115Z,82.10
2017-12-28T18:04:08.527Z,82.20
2017-12-28T18:06:42.603Z,83.50
2017-12-28T18:09:15.480Z,82.50
2017-12-28T18:11:47.881Z,82.40
2017-12-28T18:14:20.402Z,82.40
2017-12-28T18:16:54.526Z,82.30
2017-12-28T18:19:27.270Z,82.20
2017-12-28T18:21:59.792Z,82.40
2017-12-28T18:24:33.029Z,82.50
2017-12-28T18:27:05.729Z,83.10
2017-12-28T18:29:38.157Z,82.40
2017-12-28T18:32:10.572Z,81.80
2017-12-28T18:34:44.008Z,82.00
2017-12-28T18:37:17.931Z,82.00
2017-12-28T18:39:50.672Z,81.90
2017-12-28T18:42:23.137Z,82.40
2017-12-28T18:44:55.733Z,82.40
2017-12-28T18:47:29.159Z,82.80
2017-12-28T18:50:01.656Z,82.80
2017-12-28T18:52:35.222Z,83.10
2017-12-28T18:55:08.560Z,83.40
2017-12-28T18:57:41.866Z,83.10
2017-12-28T19:00:15.297Z,83.40
2017-12-28T19:02:48.614Z,83.30
2017-12-28T19:05:21.835Z,83.70
2017-12-28T19:07:55.386Z,83.40
2017-12-28T19:10:28.108Z,83.30
2017-12-28T19:13:01.507Z,83.70
2017-12-28T19:15:33.987Z,83.50
2017-12-28T19:18:06.407Z,83.60
2017-12-28T19:20:40.533Z,83.60
2017-12-28T19:23:13.948Z,83.90
2017-12-28T19:25:46.638Z,83.80
2017-12-28T19:28:20.153Z,83.70
2017-12-28T19:30:53.620Z,83.70
2017-12-28T19:33:27.003Z,83.90
2017-12-28T19:35:59.562Z,83.90
2017-12-28T19:38:33.225Z,83.70
2017-12-28T19:41:06.511Z,83.80
2017-12-28T19:43:39.994Z,83.50
2017-12-28T19:46:12.460Z,83.50
2017-12-28T19:48:46.079Z,83.80
2017-12-28T19:51:19.795Z,83.60
2017-12-28T19:53:52.896Z,83.50
2017-12-28T19:56:26.229Z,83.60
2017-12-28T19:58:59.550Z,83.80
2017-12-28T20:01:33.593Z,83.40
2017-12-28T20:04:07.122Z,83.50
2017-12-28T20:06:40.384Z,83.40
2017-12-28T20:09:13.983Z,83.50
2017-12-28T20:11:48.092Z,83.70
2017-12-28T20:14:22.102Z,84.00
2017-12-28T20:16:57.894Z,84.10
2017-12-28T20:19:33.276Z,84.00
2017-12-28T20:22:08.689Z,84.40
2017-12-28T20:24:43.916Z,83.70
2017-12-28T20:27:20.008Z,83.70
2017-12-28T20:29:55.201Z,84.10
2017-12-28T20:32:30.861Z,84.00
2017-12-28T20:35:06.182Z,83.90
2017-12-28T20:37:41.543Z,84.00
2017-12-28T20:40:17.306Z,83.70
2017-12-28T20:42:52.917Z,83.50
2017-12-28T20:45:28.177Z,83.40
2017-12-28T20:48:04.783Z,83.10
2017-12-28T20:50:40.145Z,83.10
2017-12-28T20:53:15.554Z,83.10
2017-12-28T20:55:51.289Z,83.30
2017-12-28T20:58:26.908Z,83.70
2017-12-28T21:01:02.929Z,83.40
2017-12-28T21:03:39.079Z,83.60
2017-12-28T21:06:14.383Z,83.60
2017-12-28T21:08:50.483Z,83.50
2017-12-28T21:11:25.832Z,83.70
2017-12-28T21:14:01.004Z,83.50
2017-12-28T21:16:36.318Z,83.30
2017-12-28T21:19:11.638Z,83.30
2017-12-28T21:21:47.603Z,83.30
2017-12-28T21:24:22.967Z,83.10
2017-12-28T21:26:58.195Z,83.00
2017-12-28T21:29:33.621Z,82.70
2017-12-28T21:32:08.713Z,82.50
2017-12-28T21:34:44.010Z,82.70
2017-12-28T21:37:19.360Z,82.40
2017-12-28T21:39:55.121Z,82.10
2017-12-28T21:42:29.912Z,82.10
2017-12-28T21:45:03.305Z,82.10
2017-12-28T21:47:37.109Z,82.20
2017-12-28T21:50:11.017Z,82.30
2017-12-28T21:52:45.237Z,82.20
2017-12-28T21:55:19.445Z,82.20
2017-12-28T21:57:53.540Z,82.20
2017-12-28T22:00:27.464Z,81.80
2017-12-28T22:03:01.062Z,81.70
2017-12-28T22:05:34.761Z,81.70
2017-12-28T22:08:07.720Z,82.00
2017-12-28T22:10:42.114Z,82.00
2017-12-28T22:13:15.374Z,81.90
2017-12-28T22:15:48.076Z,81.90
2017-12-28T22:18:20.635Z,81.70
2017-12-28T22:20:53.960Z,81.90
2017-12-28T22:23:26.426Z,81.70
2017-12-28T22:25:59.652Z,81.40
2017-12-28T22:28:32.364Z,82.10
2017-12-28T22:31:05.644Z,82.10
2017-12-28T22:33:38.142Z,80.90
2017-12-28T22:36:11.360Z,81.90
2017-12-28T22:38:44.797Z,81.50
2017-12-28T22:41:17.254Z,81.50
2017-12-28T22:43:49.713Z,81.00
2017-12-28T22:46:22.130Z,80.80
2017-12-28T22:48:54.764Z,80.70
2017-12-28T22:51:28.828Z,81.40
2017-12-28T22:54:01.546Z,81.50
2017-12-28T22:56:34.900Z,81.30
2017-12-28T22:59:07.643Z,81.40
2017-12-28T23:01:41.031Z,81.20
2017-12-28T23:04:14.287Z,81.40
2017-12-28T23:06:46.981Z,81.40
2017-12-28T23:09:19.537Z,80.80
2017-12-28T23:11:52.012Z,80.70
2017-12-28T23:14:24.592Z,81.20
2017-12-28T23:16:59.234Z,80.50
2017-12-28T23:19:32.372Z,81.60
2017-12-28T23:22:05.662Z,80.80
2017-12-28T23:24:38.419Z,80.70
2017-12-28T23:27:13.215Z,80.80
2017-12-28T23:29:46.135Z,80.70
2017-12-28T23:32:20.270Z,80.10
2017-12-28T23:34:52.831Z,80.20
2017-12-28T23:37:26.251Z,80.40
2017-12-28T23:39:59.518Z,80.20
2017-12-28T23:42:32.901Z,80.00
2017-12-28T23:45:06.144Z,80.00
2017-12-28T23:47:38.591Z,80.00
2017-12-28T23:50:11.051Z,80.00
2017-12-28T23:52:43.586Z,80.10
2017-12-28T23:55:16.969Z,79.90
2017-12-28T23:57:49.464Z,80.20
